Time;durP1;ratioP1;P1;durP2;ratioP2;P2;SDS_P1;SDS_P2;PMS_P1;PMS_P2;Temp;Humidity;BMP_temperature;BMP_pressure;BME280_temperature;BME280_humidity;BME280_pressure;Samples;Min_cycle;Max_cycle;Signal;HPM_P1;HPM_P2
2022/07/07 00:01:03;;;;;;;0.00;0.00;;;22.00;72.90;;;;;;3983448;29;20061;-66
2022/07/07 00:03:26;;;;;;;0.00;0.00;;;22.00;72.90;;;;;;3981237;29;20056;-66
2022/07/07 00:05:50;;;;;;;0.00;0.00;;;22.00;73.00;;;;;;3953277;29;21548;-67
2022/07/07 00:08:22;;;;;;;0.00;0.00;;;22.00;72.90;;;;;;3954537;29;20047;-65
2022/07/07 00:10:48;;;;;;;0.10;0.10;;;22.00;73.10;;;;;;3960526;29;20087;-66
2022/07/07 00:13:13;;;;;;;0.00;0.00;;;22.00;73.10;;;;;;3968486;29;20134;-66
2022/07/07 00:15:37;;;;;;;0.00;0.00;;;22.00;73.10;;;;;;3967224;29;20055;-66
2022/07/07 00:18:00;;;;;;;0.00;0.00;;;22.00;73.20;;;;;;3978323;29;20134;-65
2022/07/07 00:20:23;;;;;;;0.00;0.00;;;22.00;73.20;;;;;;3967039;29;20156;-66
2022/07/07 00:22:51;;;;;;;0.15;0.15;;;22.00;73.30;;;;;;3954731;29;20131;-66
2022/07/07 00:25:14;;;;;;;0.00;0.00;;;22.00;73.40;;;;;;3967021;29;20422;-66
2022/07/07 00:27:38;;;;;;;0.13;0.13;;;22.00;73.40;;;;;;3939933;29;20063;-65
2022/07/07 00:30:03;;;;;;;0.10;0.10;;;22.00;73.40;;;;;;3966724;29;20107;-66
2022/07/07 00:32:37;;;;;;;;;;;;;;;;;;;;;
2022/07/07 00:35:16;;;;;;;0.00;0.00;;;22.00;73.40;;;;;;3963908;29;20101;-66
2022/07/07 00:37:45;;;;;;;0.00;0.00;;;22.00;73.50;;;;;;3964345;29;20062;-65
2022/07/07 00:40:13;;;;;;;0.00;0.00;;;22.00;73.50;;;;;;3949696;29;20059;-65
2022/07/07 00:42:36;;;;;;;0.00;0.00;;;22.00;73.60;;;;;;3965839;29;20061;-65
2022/07/07 00:45:21;;;;;;;0.00;0.00;;;22.00;73.70;;;;;;3951004;29;20206;-65
2022/07/07 00:48:14;;;;;;;0.00;0.00;;;22.00;73.70;;;;;;3946181;29;20070;-64
2022/07/07 00:50:39;;;;;;;0.00;0.00;;;21.90;73.70;;;;;;3957199;29;20051;-65
2022/07/07 00:53:03;;;;;;;0.00;0.00;;;22.00;74.70;;;;;;3966602;29;20157;-65
2022/07/07 00:55:29;;;;;;;0.00;0.00;;;22.00;73.80;;;;;;3942602;29;20065;-65
2022/07/07 00:57:53;;;;;;;0.00;0.00;;;22.00;73.90;;;;;;3976917;29;20077;-65
2022/07/07 01:00:24;;;;;;;0.00;0.00;;;21.90;73.90;;;;;;3965523;29;20524;-65
2022/07/07 01:02:48;;;;;;;0.00;0.00;;;21.90;74.00;;;;;;3965774;29;20075;-65
2022/07/07 01:05:16;;;;;;;0.10;0.10;;;21.90;74.00;;;;;;3967034;29;20940;-65
2022/07/07 01:07:40;;;;;;;0.00;0.00;;;21.90;74.10;;;;;;3955518;29;20109;-65
2022/07/07 01:10:05;;;;;;;0.00;0.00;;;22.00;74.20;;;;;;3968291;29;20107;-65
2022/07/07 01:12:33;;;;;;;0.00;0.00;;;21.90;74.30;;;;;;3958718;29;20062;-64
2022/07/07 01:15:05;;;;;;;0.00;0.00;;;21.90;74.30;;;;;;3948676;29;20052;-65
2022/07/07 01:17:30;;;;;;;0.00;0.00;;;21.90;74.30;;;;;;3966830;29;20094;-65
2022/07/07 01:19:54;;;;;;;0.00;0.00;;;21.90;74.40;;;;;;3967817;29;20063;-65
2022/07/07 01:22:36;;;;;;;0.00;0.00;;;21.90;74.40;;;;;;3971279;29;20440;-65
2022/07/07 01:25:00;;;;;;;0.05;0.05;;;21.90;74.40;;;;;;3974231;29;20074;-65
2022/07/07 01:27:23;;;;;;;0.03;0.03;;;21.90;74.40;;;;;;3970429;29;20111;-65
2022/07/07 01:29:48;;;;;;;0.00;0.00;;;21.90;75.20;;;;;;3982791;29;20083;-65
2022/07/07 01:32:10;;;;;;;0.00;0.00;;;21.90;74.40;;;;;;3969901;29;20054;-66
2022/07/07 01:34:34;;;;;;;0.00;0.00;;;21.90;74.40;;;;;;3939444;29;20062;-65
2022/07/07 01:37:00;;;;;;;0.00;0.00;;;21.90;74.40;;;;;;3956218;29;20063;-65
2022/07/07 01:39:32;;;;;;;0.47;0.47;;;21.90;74.40;;;;;;3983389;29;20062;-64
2022/07/07 01:42:01;;;;;;;0.00;0.00;;;21.90;74.50;;;;;;3969871;29;20521;-65
2022/07/07 01:44:24;;;;;;;0.00;0.00;;;21.90;74.60;;;;;;3977838;29;20494;-66
2022/07/07 01:46:47;;;;;;;0.00;0.00;;;21.90;74.70;;;;;;3970280;29;20131;-66
2022/07/07 01:49:10;;;;;;;2.38;0.95;;;21.90;74.70;;;;;;3983946;29;20513;-67
2022/07/07 01:51:32;;;;;;;0.00;0.00;;;21.90;74.70;;;;;;3984088;29;20066;-65
2022/07/07 01:53:54;;;;;;;0.00;0.00;;;21.90;74.70;;;;;;3984143;29;20058;-65
2022/07/07 01:56:16;;;;;;;0.00;0.00;;;21.90;74.70;;;;;;3981238;29;20076;-65
2022/07/07 01:58:40;;;;;;;0.00;0.00;;;21.90;74.70;;;;;;3971720;29;20414;-65
2022/07/07 02:01:03;;;;;;;0.00;0.00;;;21.80;74.70;;;;;;3971279;29;20142;-65
2022/07/07 02:03:27;;;;;;;0.00;0.00;;;21.80;74.70;;;;;;3959612;29;20054;-65
2022/07/07 02:05:49;;;;;;;1.15;0.70;;;21.80;75.60;;;;;;3986955;29;20058;-65
2022/07/07 02:08:12;;;;;;;0.00;0.00;;;21.90;74.80;;;;;;3971359;29;20074;-65
2022/07/07 02:13:38;;;;;;;0.00;0.00;;;21.80;74.80;;;;;;3964270;29;20550;-65
2022/07/07 02:16:25;;;;;;;0.00;0.00;;;21.90;74.80;;;;;;3969288;29;20051;-67
2022/07/07 02:18:49;;;;;;;0.00;0.00;;;21.90;74.80;;;;;;3982892;29;20078;-65
2022/07/07 02:21:14;;;;;;;0.00;0.00;;;21.80;74.80;;;;;;3938754;29;20160;-65
2022/07/07 02:23:39;;;;;;;0.00;0.00;;;21.80;75.00;;;;;;3982020;29;20059;-65
2022/07/07 02:26:18;;;;;;;;;;;21.80;75.00;;;;;;3972144;29;20059;-66
2022/07/07 02:28:41;;;;;;;0.00;0.00;;;21.80;75.00;;;;;;3986819;29;20110;-66
2022/07/07 02:31:05;;;;;;;0.00;0.00;;;21.80;75.00;;;;;;3983719;29;20057;-66
2022/07/07 02:33:29;;;;;;;0.00;0.00;;;21.80;75.00;;;;;;3971971;29;20445;-66
2022/07/07 02:35:52;;;;;;;0.00;0.00;;;21.80;75.00;;;;;;3972482;29;20053;-67
2022/07/07 02:38:15;;;;;;;0.00;0.00;;;21.80;75.10;;;;;;3972329;29;20059;-66
2022/07/07 02:40:38;;;;;;;0.00;0.00;;;21.80;75.00;;;;;;3969423;29;20082;-66
2022/07/07 02:43:00;;;;;;;0.00;0.00;;;21.80;75.00;;;;;;3958957;29;20146;-66
2022/07/07 02:45:23;;;;;;;0.10;0.10;;;21.80;74.90;;;;;;3962455;29;20107;-66
2022/07/07 02:47:45;;;;;;;0.00;0.00;;;21.80;75.10;;;;;;3973395;29;20232;-66
2022/07/07 02:50:10;;;;;;;0.00;0.00;;;21.80;75.20;;;;;;3986867;29;20061;-66
2022/07/07 02:52:32;;;;;;;0.00;0.00;;;21.80;75.20;;;;;;3972360;29;20051;-66
2022/07/07 02:54:55;;;;;;;0.15;0.15;;;21.80;75.20;;;;;;3971324;29;20157;-67
2022/07/07 02:57:17;;;;;;;0.00;0.00;;;21.80;75.20;;;;;;3972027;29;20051;-66
2022/07/07 02:59:39;;;;;;;0.00;0.00;;;21.80;75.40;;;;;;3979974;29;20042;-66
2022/07/07 03:02:02;;;;;;;0.00;0.00;;;21.80;75.30;;;;;;3972547;29;20057;-67
2022/07/07 03:04:24;;;;;;;0.20;0.20;;;21.80;75.30;;;;;;3986684;29;20630;-66
2022/07/07 03:06:48;;;;;;;0.35;0.35;;;21.80;75.40;;;;;;3986864;29;20161;-66
2022/07/07 03:09:10;;;;;;;0.45;0.43;;;21.80;76.20;;;;;;3985927;29;20497;-66
2022/07/07 03:11:33;;;;;;;0.00;0.00;;;21.80;75.40;;;;;;3971901;29;20145;-67
2022/07/07 03:13:55;;;;;;;0.00;0.00;;;21.80;75.40;;;;;;3973363;29;20043;-67
2022/07/07 03:16:18;;;;;;;0.00;0.00;;;21.70;75.30;;;;;;3970154;29;20550;-65
2022/07/07 03:18:40;;;;;;;0.00;0.00;;;21.80;75.40;;;;;;3971154;29;20050;-67
2022/07/07 03:21:03;;;;;;;0.25;0.25;;;21.80;75.40;;;;;;3953008;29;20052;-65
2022/07/07 03:23:31;;;;;;;0.00;0.00;;;21.70;75.30;;;;;;3943073;29;20083;-64
2022/07/07 03:26:14;;;;;;;0.00;0.00;;;21.80;75.40;;;;;;3957177;29;20510;-66
2022/07/07 03:28:37;;;;;;;0.00;0.00;;;21.80;75.40;;;;;;3984721;29;20137;-66
2022/07/07 03:31:00;;;;;;;0.00;0.00;;;21.70;75.40;;;;;;3975705;29;20050;-63
2022/07/07 03:33:24;;;;;;;0.00;0.00;;;21.70;75.40;;;;;;3985925;29;20070;-63
2022/07/07 03:35:49;;;;;;;0.00;0.00;;;21.70;75.40;;;;;;3985590;29;20054;-64
2022/07/07 03:38:12;;;;;;;0.00;0.00;;;21.70;75.50;;;;;;3984873;29;20056;-63
2022/07/07 03:40:36;;;;;;;0.00;0.00;;;21.80;75.60;;;;;;3965192;29;20158;-66
2022/07/07 03:42:58;;;;;;;0.00;0.00;;;21.70;75.50;;;;;;3970652;29;20050;-64
2022/07/07 03:45:30;;;;;;;0.00;0.00;;;21.70;75.50;;;;;;3970825;29;20116;-65
2022/07/07 03:47:52;;;;;;;0.00;0.00;;;21.70;75.40;;;;;;3969921;29;20062;-65
2022/07/07 03:50:15;;;;;;;0.00;0.00;;;21.70;75.40;;;;;;3948329;29;20081;-64
2022/07/07 03:52:37;;;;;;;0.00;0.00;;;21.70;75.40;;;;;;3956655;29;20055;-64
2022/07/07 03:55:02;;;;;;;0.00;0.00;;;21.70;75.30;;;;;;3981223;29;20058;-67
2022/07/07 03:57:26;;;;;;;0.00;0.00;;;21.70;75.30;;;;;;3971201;29;20055;-64
2022/07/07 03:59:48;;;;;;;0.00;0.00;;;21.70;75.30;;;;;;3982997;29;20065;-64
2022/07/07 04:02:11;;;;;;;0.00;0.00;;;21.70;75.30;;;;;;3985257;29;20073;-63
2022/07/07 04:04:33;;;;;;;0.00;0.00;;;21.70;75.20;;;;;;3972169;29;20119;-66
2022/07/07 04:06:56;;;;;;;0.00;0.00;;;21.70;75.30;;;;;;3985533;29;20632;-64
2022/07/07 04:09:21;;;;;;;0.10;0.10;;;21.70;75.30;;;;;;3957957;29;20139;-64
2022/07/07 04:11:44;;;;;;;4.85;0.88;;;21.70;75.40;;;;;;3984981;29;20421;-63
2022/07/07 04:14:08;;;;;;;0.00;0.00;;;21.70;75.50;;;;;;3985161;29;20061;-64
2022/07/07 04:16:31;;;;;;;0.00;0.00;;;21.70;75.50;;;;;;3977326;29;20085;-63
2022/07/07 04:18:53;;;;;;;0.00;0.00;;;21.60;75.40;;;;;;3984345;29;20073;-64
2022/07/07 04:21:16;;;;;;;3.83;1.67;;;21.60;75.40;;;;;;3981298;29;20050;-64
2022/07/07 04:23:38;;;;;;;0.00;0.00;;;21.70;75.50;;;;;;3969588;29;20062;-64
2022/07/07 04:26:01;;;;;;;0.00;0.00;;;21.70;75.60;;;;;;3970001;29;20115;-64
2022/07/07 04:28:23;;;;;;;0.00;0.00;;;21.70;75.60;;;;;;3970141;29;20081;-64
2022/07/07 04:30:47;;;;;;;0.00;0.00;;;21.60;75.60;;;;;;3970025;29;20074;-63
2022/07/07 04:33:10;;;;;;;0.00;0.00;;;21.60;75.60;;;;;;3972568;29;20042;-66
2022/07/07 04:35:32;;;;;;;0.00;0.00;;;21.60;75.70;;;;;;3970498;29;20054;-66
2022/07/07 04:37:55;;;;;;;0.00;0.00;;;21.60;75.60;;;;;;3971921;29;20065;-66
2022/07/07 04:40:18;;;;;;;0.00;0.00;;;21.60;75.70;;;;;;3965469;29;20051;-66
2022/07/07 04:42:41;;;;;;;0.00;0.00;;;21.60;75.70;;;;;;3943289;29;20062;-64
2022/07/07 04:45:07;;;;;;;0.00;0.00;;;21.60;75.70;;;;;;3967458;29;20067;-66
2022/07/07 04:47:33;;;;;;;0.00;0.00;;;21.60;75.90;;;;;;3962311;29;20065;-65
2022/07/07 04:49:57;;;;;;;0.00;0.00;;;21.60;75.60;;;;;;3960529;29;20051;-65
2022/07/07 04:52:20;;;;;;;0.00;0.00;;;21.60;75.60;;;;;;3970460;29;20067;-64
2022/07/07 04:54:42;;;;;;;0.00;0.00;;;21.60;75.50;;;;;;3971457;29;20062;-64
2022/07/07 04:57:05;;;;;;;0.00;0.00;;;21.60;75.60;;;;;;3985421;29;20127;-66
2022/07/07 04:59:28;;;;;;;0.00;0.00;;;21.60;75.90;;;;;;3977119;29;20078;-66
2022/07/07 05:01:51;;;;;;;0.00;0.00;;;21.50;76.10;;;;;;3957007;29;20055;-66
2022/07/07 05:04:15;;;;;;;0.00;0.00;;;21.60;76.00;;;;;;3969746;29;20099;-66
2022/07/07 05:06:38;;;;;;;0.00;0.00;;;21.60;75.90;;;;;;3959144;29;20062;-66
2022/07/07 05:09:00;;;;;;;0.00;0.00;;;21.60;75.90;;;;;;3956150;29;20051;-66
2022/07/07 05:11:22;;;;;;;0.00;0.00;;;21.60;75.90;;;;;;3956229;29;20070;-65
2022/07/07 05:13:44;;;;;;;0.00;0.00;;;21.60;75.80;;;;;;3965421;29;20149;-66
2022/07/07 05:16:07;;;;;;;0.00;0.00;;;21.60;75.80;;;;;;3969215;29;20055;-66
2022/07/07 05:18:30;;;;;;;0.00;0.00;;;21.50;75.80;;;;;;3971736;29;20070;-66
2022/07/07 05:20:54;;;;;;;6.03;2.45;;;21.50;75.70;;;;;;3968669;29;20078;-65
2022/07/07 05:23:17;;;;;;;0.03;0.03;;;21.60;75.70;;;;;;3977712;29;20413;-65
2022/07/07 05:25:39;;;;;;;0.00;0.00;;;21.50;75.60;;;;;;3971384;29;20189;-66
2022/07/07 05:28:02;;;;;;;0.00;0.00;;;21.50;75.50;;;;;;3984089;29;20444;-66
2022/07/07 05:30:24;;;;;;;0.00;0.00;;;21.50;75.40;;;;;;3984667;29;20066;-66
2022/07/07 05:32:47;;;;;;;0.00;0.00;;;21.50;75.30;;;;;;3983456;29;20058;-66
2022/07/07 05:35:10;;;;;;;0.00;0.00;;;21.50;75.40;;;;;;3971667;29;20054;-66
2022/07/07 05:37:34;;;;;;;0.00;0.00;;;21.50;75.10;;;;;;3985073;29;20119;-65
2022/07/07 05:39:57;;;;;;;0.00;0.00;;;21.50;75.10;;;;;;3957075;29;20544;-66
2022/07/07 05:42:20;;;;;;;0.00;0.00;;;21.50;76.20;;;;;;3956128;29;20067;-66
2022/07/07 05:44:43;;;;;;;0.00;0.00;;;21.50;75.20;;;;;;3956901;29;20058;-66
2022/07/07 05:47:06;;;;;;;0.00;0.00;;;21.50;75.10;;;;;;3969393;29;20061;-66
2022/07/07 05:49:29;;;;;;;0.00;0.00;;;21.50;74.70;;;;;;3963360;29;20130;-67
2022/07/07 05:51:52;;;;;;;0.00;0.00;;;21.50;74.60;;;;;;3969647;29;20054;-66
2022/07/07 05:54:16;;;;;;;2.45;0.98;;;21.50;74.80;;;;;;3961824;29;20561;-66
2022/07/07 05:56:38;;;;;;;0.00;0.00;;;21.50;74.70;;;;;;3959074;29;20054;-66
2022/07/07 05:59:01;;;;;;;0.00;0.00;;;21.40;74.40;;;;;;3946751;29;20055;-66
2022/07/07 06:01:24;;;;;;;0.00;0.00;;;21.40;74.30;;;;;;3959622;29;20055;-66
2022/07/07 06:03:46;;;;;;;0.45;0.45;;;21.40;74.30;;;;;;3972216;29;20047;-66
2022/07/07 06:06:09;;;;;;;0.00;0.00;;;21.40;74.40;;;;;;3961096;29;20182;-66
2022/07/07 06:08:32;;;;;;;0.47;0.47;;;21.40;74.40;;;;;;3957232;29;20515;-67
2022/07/07 06:10:56;;;;;;;0.00;0.00;;;21.40;74.40;;;;;;3954768;29;20117;-67
2022/07/07 06:13:19;;;;;;;0.00;0.00;;;21.40;74.50;;;;;;3969639;29;20164;-67
2022/07/07 06:15:42;;;;;;;0.00;0.00;;;21.40;74.50;;;;;;3951923;29;20093;-67
2022/07/07 06:18:05;;;;;;;0.00;0.00;;;21.40;74.60;;;;;;3970970;29;20050;-67
2022/07/07 06:20:30;;;;;;;0.20;0.20;;;21.40;74.40;;;;;;3970513;29;20081;-67
2022/07/07 06:22:52;;;;;;;0.98;0.63;;;21.40;74.40;;;;;;3971585;29;20054;-67
2022/07/07 06:25:15;;;;;;;0.00;0.00;;;21.40;74.10;;;;;;3970746;29;20161;-67
2022/07/07 06:27:39;;;;;;;0.00;0.00;;;21.50;74.00;;;;;;3970627;29;20491;-66
2022/07/07 06:30:03;;;;;;;0.00;0.00;;;21.40;73.70;;;;;;3955484;29;20059;-66
2022/07/07 06:32:25;;;;;;;0.00;0.00;;;21.40;73.90;;;;;;3968404;29;20054;-66
2022/07/07 06:34:48;;;;;;;0.00;0.00;;;21.40;73.90;;;;;;3969344;29;20070;-65
2022/07/07 06:37:11;;;;;;;0.00;0.00;;;21.40;74.00;;;;;;3955368;29;22120;-66
2022/07/07 06:39:34;;;;;;;0.00;0.00;;;21.40;74.10;;;;;;3942811;29;20452;-66
2022/07/07 06:41:57;;;;;;;0.00;0.00;;;21.40;74.10;;;;;;3967955;29;20098;-66
2022/07/07 06:44:31;;;;;;;0.00;0.00;;;21.40;74.40;;;;;;3953150;29;20138;-66
2022/07/07 06:46:54;;;;;;;0.00;0.00;;;21.40;74.40;;;;;;3943001;29;20093;-66
2022/07/07 06:49:17;;;;;;;0.52;0.52;;;21.40;74.40;;;;;;3942843;29;20059;-66
2022/07/07 06:51:40;;;;;;;0.00;0.00;;;21.40;74.40;;;;;;3970020;29;20046;-66
2022/07/07 06:54:05;;;;;;;0.00;0.00;;;21.50;74.50;;;;;;3952998;29;20088;-66
2022/07/07 06:56:30;;;;;;;0.00;0.00;;;21.60;74.60;;;;;;3959072;29;20047;-66
2022/07/07 06:58:53;;;;;;;0.00;0.00;;;21.60;74.10;;;;;;3982199;29;20055;-67
2022/07/07 07:01:17;;;;;;;0.00;0.00;;;21.70;74.00;;;;;;3958501;29;21208;-66
2022/07/07 07:03:40;;;;;;;0.10;0.10;;;21.70;73.60;;;;;;3966237;29;20537;-66
2022/07/07 07:06:04;;;;;;;0.00;0.00;;;21.70;72.90;;;;;;3964696;29;20054;-66
2022/07/07 07:08:26;;;;;;;0.00;0.00;;;21.70;73.00;;;;;;3961908;29;20055;-65
2022/07/07 07:10:49;;;;;;;0.00;0.00;;;21.70;73.40;;;;;;3968240;29;20070;-66
2022/07/07 07:13:13;;;;;;;0.00;0.00;;;21.70;72.90;;;;;;3953469;29;20448;-66
2022/07/07 07:15:37;;;;;;;0.00;0.00;;;21.70;73.10;;;;;;3953839;29;20492;-66
2022/07/07 07:18:01;;;;;;;0.00;0.00;;;21.70;73.30;;;;;;3968226;29;20155;-67
2022/07/07 07:20:24;;;;;;;0.00;0.00;;;21.80;73.10;;;;;;3975184;29;20058;-67
2022/07/07 07:22:46;;;;;;;0.00;0.00;;;21.80;72.70;;;;;;3963940;29;20058;-66
2022/07/07 07:25:10;;;;;;;0.00;0.00;;;21.90;72.70;;;;;;3984389;29;20587;-66
2022/07/07 07:27:36;;;;;;;0.00;0.00;;;22.00;72.30;;;;;;3972884;29;20770;-66
2022/07/07 07:29:59;;;;;;;0.00;0.00;;;22.00;72.10;;;;;;3938013;29;20064;-66
2022/07/07 07:32:23;;;;;;;1.38;1.35;;;22.00;72.10;;;;;;3969277;29;20412;-67
2022/07/07 07:34:47;;;;;;;0.00;0.00;;;22.00;72.10;;;;;;3963630;29;20062;-67
2022/07/07 07:37:11;;;;;;;0.00;0.00;;;22.00;71.50;;;;;;3959697;29;20046;-67
2022/07/07 07:39:35;;;;;;;1.65;1.30;;;22.00;71.10;;;;;;3957094;29;20131;-68
2022/07/07 07:41:57;;;;;;;0.13;0.13;;;22.00;71.30;;;;;;3985784;29;20467;-68
2022/07/07 07:46:57;;;;;;;0.00;0.00;;;22.00;71.80;;;;;;3970877;29;20059;-68
2022/07/07 07:49:20;;;;;;;0.15;0.15;;;21.90;71.90;;;;;;3957685;29;20156;-67
2022/07/07 07:51:44;;;;;;;0.00;0.00;;;21.90;71.90;;;;;;3959786;29;20616;-69
2022/07/07 07:54:07;;;;;;;0.00;0.00;;;21.90;71.70;;;;;;3973258;29;20787;-67
2022/07/07 07:56:30;;;;;;;0.00;0.00;;;21.90;71.80;;;;;;3966498;29;20074;-68
2022/07/07 07:58:53;;;;;;;0.00;0.00;;;21.90;72.00;;;;;;3973115;29;20236;-68
2022/07/07 08:01:16;;;;;;;0.10;0.10;;;21.90;72.30;;;;;;3987159;29;20139;-69
2022/07/07 08:03:38;;;;;;;11.98;1.83;;;21.90;72.60;;;;;;3973169;29;20059;-68
2022/07/07 08:06:01;;;;;;;0.52;0.52;;;21.90;72.70;;;;;;3973924;29;20107;-68
2022/07/07 08:08:26;;;;;;;0.00;0.00;;;21.90;72.50;;;;;;3986344;29;20073;-68
2022/07/07 08:10:49;;;;;;;0.00;0.00;;;22.00;72.80;;;;;;3973161;29;20072;-68
2022/07/07 08:13:12;;;;;;;0.10;0.10;;;22.00;72.80;;;;;;3959310;29;21213;-68
2022/07/07 08:15:35;;;;;;;0.00;0.00;;;21.90;72.90;;;;;;3945469;29;20057;-69
2022/07/07 08:17:58;;;;;;;1.38;1.30;;;21.90;73.10;;;;;;3942723;29;20052;-69
2022/07/07 08:20:21;;;;;;;0.00;0.00;;;21.90;73.10;;;;;;3971438;29;20068;-68
2022/07/07 08:22:45;;;;;;;0.00;0.00;;;21.90;73.20;;;;;;3957939;29;20138;-68
2022/07/07 08:25:12;;;;;;;0.00;0.00;;;21.90;73.40;;;;;;3965082;29;20082;-68
2022/07/07 08:27:37;;;;;;;0.00;0.00;;;21.90;73.60;;;;;;3940418;29;20124;-68
2022/07/07 08:30:01;;;;;;;0.00;0.00;;;21.90;73.80;;;;;;3985899;29;20066;-67
2022/07/07 08:32:23;;;;;;;0.00;0.00;;;21.90;73.90;;;;;;3972721;29;20058;-68
2022/07/07 08:34:47;;;;;;;0.10;0.10;;;21.90;73.90;;;;;;3963148;29;20129;-67
2022/07/07 08:37:11;;;;;;;0.00;0.00;;;22.00;73.80;;;;;;3971387;29;21571;-68
2022/07/07 08:39:34;;;;;;;0.00;0.00;;;22.00;74.10;;;;;;3980206;29;20153;-68
2022/07/07 08:41:58;;;;;;;0.00;0.00;;;22.00;74.00;;;;;;3964420;29;20541;-68
2022/07/07 08:44:21;;;;;;;0.00;0.00;;;22.00;73.90;;;;;;3967920;29;20635;-67
2022/07/07 08:46:45;;;;;;;0.00;0.00;;;22.00;73.80;;;;;;3969441;29;20054;-67
2022/07/07 08:49:09;;;;;;;0.65;0.65;;;22.00;73.80;;;;;;3954545;29;20142;-67
2022/07/07 08:51:33;;;;;;;0.00;0.00;;;21.90;73.70;;;;;;3968575;29;20524;-68
2022/07/07 08:53:56;;;;;;;0.00;0.00;;;21.90;73.70;;;;;;3967106;29;20154;-68
2022/07/07 08:56:20;;;;;;;0.63;0.63;;;21.90;74.80;;;;;;3968975;29;20523;-68
2022/07/07 08:58:45;;;;;;;0.00;0.00;;;21.90;73.70;;;;;;3963755;29;20112;-68
2022/07/07 09:01:25;;;;;;;0.00;0.00;;;21.90;73.50;;;;;;3951367;29;20161;-68
2022/07/07 09:03:48;;;;;;;0.00;0.00;;;22.00;73.70;;;;;;3951307;29;20075;-69
2022/07/07 09:06:15;;;;;;;0.00;0.00;;;22.00;73.60;;;;;;3959192;29;20047;-69
2022/07/07 09:08:43;;;;;;;0.70;0.70;;;22.00;73.40;;;;;;3971528;29;20051;-69
2022/07/07 09:11:09;;;;;;;0.00;0.00;;;22.00;73.50;;;;;;3979759;29;20050;-69
2022/07/07 09:13:35;;;;;;;0.88;0.88;;;22.00;73.50;;;;;;3970559;29;20070;-69
2022/07/07 09:16:02;;;;;;;0.00;0.00;;;22.00;73.20;;;;;;3946295;29;20063;-67
2022/07/07 09:18:34;;;;;;;0.00;0.00;;;22.00;73.20;;;;;;3941901;29;20131;-68
2022/07/07 09:20:58;;;;;;;0.00;0.00;;;22.00;73.10;;;;;;3968244;29;20047;-69
2022/07/07 09:23:22;;;;;;;0.00;0.00;;;22.00;73.20;;;;;;3959513;29;20135;-67
2022/07/07 09:25:44;;;;;;;0.00;0.00;;;22.00;73.40;;;;;;3971623;29;20663;-68
2022/07/07 09:28:08;;;;;;;0.00;0.00;;;22.00;73.20;;;;;;3958827;29;20605;-68
2022/07/07 09:30:36;;;;;;;0.00;0.00;;;22.00;73.20;;;;;;3964156;29;20061;-67
2022/07/07 09:33:03;;;;;;;0.00;0.00;;;22.00;73.20;;;;;;3942180;29;20768;-69
2022/07/07 09:38:14;;;;;;;0.00;0.00;;;22.00;72.90;;;;;;3970834;29;20490;-68
2022/07/07 09:40:37;;;;;;;0.00;0.00;;;22.00;72.80;;;;;;3969271;29;20138;-69
2022/07/07 09:43:03;;;;;;;0.00;0.00;;;22.10;73.90;;;;;;3971836;29;20137;-69
2022/07/07 09:45:26;;;;;;;0.00;0.00;;;22.10;73.00;;;;;;3970579;29;20096;-68
2022/07/07 09:47:49;;;;;;;0.00;0.00;;;22.00;72.90;;;;;;3985815;29;20058;-67
2022/07/07 09:50:17;;;;;;;0.00;0.00;;;22.00;73.70;;;;;;3955938;29;20051;-68
2022/07/07 09:52:42;;;;;;;0.00;0.00;;;22.00;74.10;;;;;;3951338;29;20103;-68
2022/07/07 09:55:09;;;;;;;0.00;0.00;;;22.00;74.20;;;;;;3983053;29;20058;-68
2022/07/07 09:57:32;;;;;;;1.67;1.00;;;22.00;74.30;;;;;;3969371;29;20119;-69
2022/07/07 09:59:56;;;;;;;0.00;0.00;;;22.00;74.40;;;;;;3955103;29;20052;-69
2022/07/07 10:02:24;;;;;;;0.00;0.00;;;21.90;74.70;;;;;;3968382;29;20059;-69
2022/07/07 10:04:50;;;;;;;0.00;0.00;;;21.90;75.90;;;;;;3943051;29;20060;-69
2022/07/07 10:07:17;;;;;;;0.00;0.00;;;21.90;75.20;;;;;;3955445;29;20154;-68
2022/07/07 10:09:48;;;;;;;0.00;0.00;;;21.90;75.30;;;;;;3943055;29;20055;-68
2022/07/07 10:12:11;;;;;;;;;;;21.90;75.60;;;;;;3984512;29;20053;-68
2022/07/07 10:14:36;;;;;;;0.00;0.00;;;21.80;76.00;;;;;;3970839;29;20831;-70
2022/07/07 10:16:59;;;;;;;0.00;0.00;;;21.80;76.00;;;;;;3955755;29;20059;-69
2022/07/07 10:19:23;;;;;;;0.00;0.00;;;21.80;76.20;;;;;;3970987;29;20078;-70
2022/07/07 10:21:48;;;;;;;0.00;0.00;;;21.70;76.50;;;;;;3971244;29;20412;-69
2022/07/07 10:24:13;;;;;;;0.90;0.30;;;21.70;75.80;;;;;;3962516;29;20502;-69
2022/07/07 10:26:37;;;;;;;0.00;0.00;;;21.70;75.50;;;;;;3985470;29;20081;-69
2022/07/07 10:29:00;;;;;;;0.00;0.00;;;21.70;75.50;;;;;;3984682;29;20053;-69
2022/07/07 10:31:24;;;;;;;0.00;0.00;;;21.60;75.40;;;;;;3947588;29;20068;-68
2022/07/07 10:33:53;;;;;;;0.00;0.00;;;21.60;75.90;;;;;;3977406;29;20051;-69
2022/07/07 10:36:15;;;;;;;0.32;0.32;;;21.60;75.60;;;;;;3937740;29;20080;-69
2022/07/07 10:38:39;;;;;;;0.00;0.00;;;21.60;75.20;;;;;;3970597;29;20507;-69
2022/07/07 10:41:04;;;;;;;0.00;0.00;;;21.60;75.30;;;;;;3946224;29;20123;-69
2022/07/07 10:43:31;;;;;;;0.22;0.22;;;21.60;74.20;;;;;;3969642;29;20137;-69
2022/07/07 10:45:56;;;;;;;0.00;0.00;;;21.60;73.60;;;;;;3958186;29;20679;-69
2022/07/07 10:48:46;;;;;;;0.00;0.00;;;21.60;73.70;;;;;;3969861;29;20071;-69
2022/07/07 10:51:20;;;;;;;0.00;0.00;;;21.50;73.70;;;;;;3962554;29;20062;-69
2022/07/07 10:53:55;;;;;;;0.20;0.20;;;21.60;73.30;;;;;;3957158;29;20117;-68
2022/07/07 10:56:19;;;;;;;0.00;0.00;;;21.60;71.70;;;;;;3979691;29;20153;-69
2022/07/07 10:58:58;;;;;;;0.00;0.00;;;21.50;71.30;;;;;;3955318;29;20553;-68
2022/07/07 11:01:22;;;;;;;0.00;0.00;;;21.50;69.20;;;;;;3980708;29;20133;-69
2022/07/07 11:03:44;;;;;;;0.00;0.00;;;21.50;69.40;;;;;;3956021;29;20055;-68
2022/07/07 11:06:07;;;;;;;0.00;0.00;;;21.50;68.30;;;;;;3956530;29;20543;-68
2022/07/07 11:08:40;;;;;;;0.00;0.00;;;21.50;68.00;;;;;;3942734;29;20060;-68
2022/07/07 11:11:06;;;;;;;0.00;0.00;;;21.50;68.10;;;;;;3969154;29;20050;-69
2022/07/07 11:13:35;;;;;;;0.00;0.00;;;21.50;66.90;;;;;;3954805;29;20146;-68
2022/07/07 11:16:15;;;;;;;0.00;0.00;;;21.50;66.10;;;;;;3957131;29;20062;-71
2022/07/07 11:18:42;;;;;;;0.10;0.10;;;21.50;64.50;;;;;;3943528;29;20420;-68
2022/07/07 11:21:06;;;;;;;0.00;0.00;;;21.50;64.10;;;;;;3974991;29;20062;-68
2022/07/07 11:23:43;;;;;;;0.00;0.00;;;21.50;64.80;;;;;;3969506;29;20062;-72
2022/07/07 11:26:06;;;;;;;0.15;0.15;;;21.50;65.20;;;;;;3983391;29;20501;-71
2022/07/07 11:28:30;;;;;;;0.00;0.00;;;21.50;64.70;;;;;;3981206;29;20062;-70
2022/07/07 11:31:06;;;;;;;0.30;0.30;;;21.50;64.50;;;;;;3956892;29;20059;-70
2022/07/07 11:33:28;;;;;;;0.00;0.00;;;21.50;64.60;;;;;;3968993;29;20467;-70
2022/07/07 11:35:51;;;;;;;0.17;0.17;;;21.50;64.70;;;;;;3985091;29;20058;-70
2022/07/07 11:38:13;;;;;;;0.38;0.38;;;21.50;64.60;;;;;;3957401;29;20067;-70
2022/07/07 11:40:39;;;;;;;41.72;1.40;;;21.50;65.10;;;;;;3942620;29;20060;-70
2022/07/07 11:43:03;;;;;;;0.00;0.00;;;21.60;65.90;;;;;;3955188;29;20055;-69
2022/07/07 11:45:33;;;;;;;0.00;0.00;;;21.50;64.20;;;;;;3954460;29;20134;-65
2022/07/07 11:48:07;;;;;;;0.00;0.00;;;21.60;64.20;;;;;;3970768;29;20054;-69
2022/07/07 11:50:31;;;;;;;0.00;0.00;;;21.60;64.70;;;;;;3969178;29;20074;-70
2022/07/07 11:52:55;;;;;;;2.67;2.30;;;21.60;64.50;;;;;;3947466;29;20189;-70
2022/07/07 11:55:18;;;;;;;0.00;0.00;;;21.60;64.50;;;;;;3945003;29;22218;-65
2022/07/07 11:57:41;;;;;;;0.13;0.13;;;21.70;65.00;;;;;;3960542;29;20086;-65
2022/07/07 12:00:12;;;;;;;0.00;0.00;;;21.70;65.00;;;;;;3969024;29;20067;-69
2022/07/07 12:02:35;;;;;;;0.00;0.00;;;21.70;64.90;;;;;;3969463;29;20062;-70
2022/07/07 12:05:00;;;;;;;0.82;0.82;;;21.80;63.70;;;;;;3981913;29;20074;-70
2022/07/07 12:07:23;;;;;;;0.10;0.10;;;21.80;63.70;;;;;;3966725;29;20104;-69
2022/07/07 12:09:46;;;;;;;0.00;0.00;;;21.80;63.80;;;;;;3955253;29;20131;-69
2022/07/07 12:12:17;;;;;;;0.00;0.00;;;21.80;63.30;;;;;;3967251;29;20129;-69
2022/07/07 12:14:44;;;;;;;0.10;0.10;;;21.80;62.90;;;;;;3956066;29;20059;-68
2022/07/07 12:17:06;;;;;;;0.00;0.00;;;21.80;62.30;;;;;;3955972;29;20066;-67
2022/07/07 12:19:29;;;;;;;0.00;0.00;;;21.80;61.70;;;;;;3983532;29;20418;-67
2022/07/07 12:21:53;;;;;;;0.85;0.63;;;21.80;63.00;;;;;;3983963;29;20081;-67
2022/07/07 12:24:18;;;;;;;5.32;1.13;;;21.80;62.30;;;;;;3958240;29;20512;-66
2022/07/07 12:26:44;;;;;;;0.00;0.00;;;21.80;62.90;;;;;;3970249;29;20101;-66
2022/07/07 12:29:10;;;;;;;0.00;0.00;;;21.80;62.90;;;;;;3942208;29;20060;-64
2022/07/07 12:31:33;;;;;;;0.20;0.20;;;21.80;62.70;;;;;;3967489;29;20455;-66
2022/07/07 12:33:55;;;;;;;0.00;0.00;;;21.90;62.80;;;;;;3983280;29;20478;-66
2022/07/07 12:36:22;;;;;;;0.32;0.32;;;21.80;62.10;;;;;;3982840;29;20111;-66
2022/07/07 12:38:49;;;;;;;0.10;0.10;;;21.80;62.70;;;;;;3962821;29;20139;-66
2022/07/07 12:41:24;;;;;;;0.00;0.00;;;21.80;62.90;;;;;;3969891;29;20062;-65
2022/07/07 12:43:46;;;;;;;0.10;0.10;;;21.80;62.50;;;;;;3982652;29;20463;-65